Latest Weather Observations for Moree

IDN60801

Issued at 5:03 am EDT Sunday 16 December 2018 (issued every 10 minutes, with the page automatically refreshed every 10 minutes)

About weather observations | Map of weather stations | Latest weather observations for NSW | Other Formats
Station Details ID: 053115 Name: MOREE AERO Lat: -29.49 Lon: 149.85 Height: 213.0 m
Data from the previous 72 hours. | See also: Recent months at Moree
Date/Time
EDT
Temp
°C
App
Temp
°C
Dew
Point
°C
Rel
Hum
%
Delta-T
°C
Wind Press
QNH
hPa
Press
MSL
hPa
Rain since
9am
mm
Dir  Spd
km/h
Gust
km/h
Spd
kts
Gust
kts
16/05:00am 22.8 24.0 19.0 79 2.4 NE 11 13 6 7 1007.8 1006.5 1.4
16/04:30am 23.3 24.6 19.2 78 2.6 NNE 11 13 6 7 1007.5 1006.2 1.4
16/04:00am 23.3 24.8 19.7 80 2.3 NNE 11 11 6 6 1007.3 1006.0 1.4
16/03:30am 23.6 24.6 19.5 78 2.6 NNE 13 17 7 9 1007.3 1006.0 1.2
16/03:00am 24.3 25.7 19.6 75 3.1 N 11 17 6 9 1007.6 1006.3 1.2
16/02:30am 24.3 26.5 19.6 75 3.0 N 7 11 4 6 1007.7 1006.4 1.2
16/02:00am 24.5 25.2 19.6 74 3.2 N 15 20 8 11 1007.7 1006.4 1.2
16/01:30am 24.5 24.9 19.8 75 3.1 NNE 17 26 9 14 1007.7 1006.4 1.2
16/01:00am 23.9 24.2 19.6 77 2.8 NNE 17 26 9 14 1007.9 1006.6 1.2
16/12:30am 25.9 24.5 18.8 65 4.6 NNE 24 32 13 17 1007.9 1006.6 0.0
16/12:00am 26.4 24.4 18.3 61 5.2 NE 26 35 14 19 1007.8 1006.5 0.0
 
Date/Time
EDT
Temp
°C
App
Temp
°C
Dew
Point
°C
Rel
Hum
%
Delta-T
°C
Wind Press
QNH
hPa
Press
MSL
hPa
Rain since
9am
mm
Dir  Spd
km/h
Gust
km/h
Spd
kts
Gust
kts
15/11:30pm 26.2 24.7 16.4 54 6.1 NNE 19 28 10 15 1007.7 1006.4 0.0
15/11:00pm 25.6 23.3 14.1 49 6.9 NE 19 22 10 12 1007.3 1006.0 0.0
15/10:30pm 26.5 23.2 8.0 31 10.0 NE 15 19 8 10 1006.9 1005.7 0.0
15/10:00pm 26.9 24.3 6.3 27 10.9 N 9 9 5 5 1006.3 1005.1 0.0
15/09:30pm 27.2 24.2 6.0 26 11.1 NW 11 15 6 8 1005.9 1004.7 0.0
15/09:00pm 28.0 24.7 6.2 25 11.6 NW 13 15 7 8 1005.5 1004.3 0.0
15/08:30pm 29.5 25.4 6.2 23 12.5 NW 17 17 9 9 1005.1 1003.9 0.0
15/08:00pm 30.9 28.8 12.3 32 11.1 NNW 15 22 8 12 1004.5 1003.3 0.0
15/07:30pm 31.1 29.9 15.1 38 9.9 N 15 20 8 11 1003.9 1002.6 0.0
15/07:00pm 31.9 30.3 15.0 36 10.5 N 17 28 9 15 1003.5 1002.2 0.0
15/06:30pm 32.0 29.7 14.2 34 10.9 N 19 26 10 14 1003.3 1002.0 0.0
15/06:00pm 32.3 29.4 14.0 33 11.3 NNW 22 35 12 19 1003.0 1001.7 0.0
15/05:30pm 32.0 28.1 13.2 31 11.4 N 26 33 14 18 1003.2 1001.9 0.0
15/05:00pm 33.0 28.6 14.1 32 11.7 N 30 50 16 27 1003.2 1001.9 0.0
15/04:54pm 32.9 28.9 14.0 32 11.6 NNE 28 50 15 27 1003.3 1002.0 0.0
15/04:30pm 32.0 27.6 14.2 34 10.9 N 30 43 16 23 1003.5 1002.2 0.0
15/04:00pm 33.2 30.5 15.7 35 11.1 N 24 30 13 16 1003.9 1002.6 0.0
15/03:30pm 31.8 29.8 16.5 39 9.7 N 22 35 12 19 1004.4 1003.1 0.0
15/03:00pm 31.5 29.8 18.1 44 8.7 NNE 24 33 13 18 1004.8 1003.6 0.0
15/02:30pm 29.9 29.0 17.7 48 7.8 N 19 32 10 17 1005.4 1004.2 0.0
15/02:00pm 29.1 27.8 18.2 51 7.0 NNE 22 33 12 18 1006.0 1004.8 0.0
15/01:30pm 30.2 29.5 18.6 49 7.5 NNE 20 33 11 18 1006.4 1005.2 0.0
15/01:00pm 29.3 27.2 17.2 48 7.7 NNE 24 35 13 19 1006.9 1005.7 0.0
15/12:30pm 29.1 26.9 17.0 48 7.7 NNE 24 39 13 21 1007.5 1006.2 0.0
15/12:00pm 28.2 25.4 14.4 42 8.4 NNE 22 32 12 17 1007.6 1006.3 0.0
15/11:30am 27.1 24.9 14.5 46 7.6 NE 19 26 10 14 1007.9 1006.6 0.0
15/11:03am 27.3 25.7 14.0 44 8.0 NE 15 20 8 11 1008.0 1006.7 0.0
15/11:00am 27.2 25.9 14.9 47 7.5 NE 15 20 8 11 1008.0 1006.7 0.0
15/10:30am 26.2 23.5 9.1 34 9.4 NNE 13 17 7 9 1008.2 1006.9 0.0
15/10:00am 26.4 24.4 8.8 33 9.7 N 9 11 5 6 1008.1 1006.8 0.0
15/09:30am 26.1 24.4 9.9 36 9.1 NW 9 11 5 6 1008.1 1006.8 0.0
15/09:20am 25.7 24.9 9.5 36 9.0 WNW 4 11 2 6 1008.1 1006.8 0.0
15/09:00am 25.0 24.6 12.9 47 7.1 NW 7 11 4 6 1008.0 1006.7 0.0
15/08:30am 23.8 23.7 15.0 57 5.3 N 9 11 5 6 1007.9 1006.6 0.0
15/08:00am 22.8 23.2 16.4 67 3.9 N 9 11 5 6 1007.7 1006.4 0.0
15/07:30am 21.6 22.1 16.6 73 3.1 NW 9 9 5 5 1007.3 1006.0 0.0
15/07:00am 20.4 21.5 17.2 82 2.0 WNW 7 9 4 5 1006.8 1005.6 0.0
15/06:30am 19.1 20.1 16.3 84 1.7 NE 6 9 3 5 1006.1 1004.9 0.0
15/06:00am 19.1 21.1 16.1 83 1.8 CALM 0 2 0 1 1005.7 1004.5 0.0
15/05:30am 19.4 21.2 15.5 78 2.3 CALM 0 0 0 0 1005.3 1004.1 0.0
15/05:00am 19.4 21.2 15.5 78 2.3 CALM 0 6 0 3 1005.0 1003.8 0.0
15/04:30am 19.5 20.2 15.6 78 2.3 W 6 9 3 5 1004.7 1003.5 0.0
15/04:00am 20.0 20.1 15.6 76 2.6 WNW 9 13 5 7 1004.7 1003.5 0.0
15/03:30am 20.4 21.6 15.8 75 2.8 W 4 9 2 5 1004.7 1003.5 0.0
15/03:00am 21.2 21.8 15.3 69 3.5 NE 6 7 3 4 1005.1 1003.9 0.0
15/02:30am 21.5 21.5 15.1 67 3.8 NE 9 9 5 5 1005.4 1004.2 0.0
15/02:00am 21.2 22.6 15.3 69 3.5 E 2 6 1 3 1005.6 1004.4 0.0
15/01:30am 20.7 20.8 15.5 72 3.1 ENE 9 11 5 6 1005.6 1004.4 0.0
15/01:00am 21.1 20.5 15.6 71 3.3 E 13 13 7 7 1005.8 1004.6 0.0
15/12:30am 21.1 21.5 15.2 69 3.5 SE 7 9 4 5 1005.9 1004.7 0.0
15/12:00am 21.4 20.9 13.8 62 4.5 SSE 9 9 5 5 1005.5 1004.3 0.0
 
Date/Time
EDT
Temp
°C
App
Temp
°C
Dew
Point
°C
Rel
Hum
%
Delta-T
°C
Wind Press
QNH
hPa
Press
MSL
hPa
Rain since
9am
mm
Dir  Spd
km/h
Gust
km/h
Spd
kts
Gust
kts
14/11:30pm 21.4 20.3 14.3 64 4.2 SSE 13 17 7 9 1005.6 1004.4 0.0
14/11:00pm 22.0 20.8 13.9 60 4.8 SSW 13 15 7 8 1005.2 1004.0 0.0
14/10:30pm 22.2 22.4 15.8 67 3.9 SSW 9 11 5 6 1004.9 1003.7 0.0
14/10:00pm 23.1 23.1 15.2 61 4.8 SW 9 11 5 6 1004.9 1003.7 0.0
14/09:30pm 23.5 23.6 15.5 60 4.9 SW 9 11 5 6 1004.6 1003.4 0.0
14/09:00pm 24.4 24.7 15.1 56 5.6 W 7 9 4 5 1003.9 1002.6 0.0
14/08:30pm 25.1 23.8 14.9 53 6.2 W 15 17 8 9 1003.3 1002.0 0.0
14/08:00pm 26.5 25.4 15.2 49 6.9 W 15 20 8 11 1002.6 1001.3 0.0
14/07:30pm 27.8 26.9 14.8 45 7.9 NW 13 17 7 9 1002.3 1001.0 0.0
14/07:00pm 28.6 27.4 14.1 41 8.8 NNW 13 20 7 11 1002.0 1000.8 0.0
14/06:30pm 28.7 27.8 14.9 43 8.5 N 13 19 7 10 1001.9 1000.7 0.0
14/06:00pm 29.0 27.9 14.4 41 8.9 N 13 22 7 12 1001.7 1000.5 0.0
14/05:30pm 28.4 27.4 14.6 43 8.4 N 13 19 7 10 1001.4 1000.2 0.0
14/05:00pm 28.8 29.4 16.7 48 7.7 N 9 19 5 10 1001.3 1000.1 0.0
14/04:30pm 29.0 27.6 16.5 46 7.9 NW 19 32 10 17 1001.6 1000.4 0.0
14/04:00pm 28.7 27.1 16.6 48 7.6 NW 20 32 11 17 1001.7 1000.5 0.0
14/03:30pm 28.3 27.1 16.2 47 7.6 NW 17 26 9 14 1001.9 1000.7 0.0
14/03:00pm 27.8 27.5 16.4 50 7.2 NE 13 20 7 11 1001.9 1000.7 0.0
14/02:30pm 27.9 28.0 17.4 52 6.7 NNW 13 19 7 10 1002.6 1001.3 0.0
14/02:00pm 27.0 25.8 14.1 45 7.8 W 13 19 7 10 1003.2 1001.9 0.0
14/01:30pm 26.5 26.5 14.3 47 7.3 N 7 13 4 7 1003.4 1002.1 0.0
14/01:00pm 25.7 24.9 15.1 52 6.5 WSW 13 19 7 10 1004.1 1002.8 0.0
14/12:30pm 24.8 25.1 15.1 54 5.9 W 7 17 4 9 1004.3 1003.0 0.0
14/12:00pm 24.8 24.4 16.2 58 5.3 WSW 13 19 7 10 1004.2 1002.9 0.0
14/11:30am 23.8 23.0 17.1 66 4.2 W 17 20 9 11 1004.4 1003.1 0.0
14/11:26am 23.7 22.9 17.2 67 4.1 W 17 20 9 11 1004.3 1003.0 0.0
14/11:12am 23.3 24.1 19.0 77 2.8 NW 13 17 7 9 1004.4 1003.1 0.0
14/11:00am 23.0 23.0 19.0 78 2.6 NNW 17 20 9 11 1004.3 1003.0 0.0
14/10:30am 23.1 22.9 18.4 75 3.0 N 17 22 9 12 1003.9 1002.6 0.0
14/10:23am 23.2 22.4 18.1 73 3.2 N 19 24 10 13 1003.8 1002.5 0.0
14/10:00am 23.5 22.8 18.2 72 3.4 NNW 19 26 10 14 1003.6 1002.3 0.0
14/09:30am 23.2 22.0 17.4 70 3.6 NNW 20 33 11 18 1003.7 1002.4 0.0
14/09:09am 23.6 22.4 17.6 69 3.8 N 20 28 11 15 1003.6 1002.3 0.0
14/09:04am 23.2 21.1 17.2 69 3.7 N 24 33 13 18 1003.7 1002.4 0.0
14/09:00am 23.1 21.1 18.2 74 3.1 N 26 33 14 18 1003.7 1002.4 22.4
14/08:53am 23.1 21.6 19.5 80 2.3 N 26 33 14 18 1003.6 1002.3 22.4
14/08:30am 22.2 21.9 19.6 85 1.7 N 20 28 11 15 1003.8 1002.5 22.4
14/08:00am 21.1 19.9 19.2 89 1.2 NNE 24 30 13 16 1003.4 1002.1 22.4
14/07:58am 21.1 19.9 19.2 89 1.2 NNE 24 32 13 17 1003.4 1002.1 22.4
14/07:39am 21.2 19.5 18.9 87 1.5 NNE 26 37 14 20 1003.4 1002.1 22.4
14/07:30am 21.6 19.8 18.8 84 1.8 N 26 33 14 18 1003.3 1002.0 22.4
14/07:00am 21.8 20.7 18.6 82 2.0 NNE 22 28 12 15 1002.8 1001.5 22.4
14/06:30am 21.8 20.8 18.8 83 1.9 NNE 22 33 12 18 1002.5 1001.2 22.4
14/06:00am 21.7 20.3 18.9 84 1.8 NNE 24 28 13 15 1001.8 1000.6 22.4
14/05:30am 21.8 20.2 19.2 85 1.7 NNE 26 33 14 18 1001.5 1000.3 22.4
14/05:00am 21.8 21.4 19.4 86 1.5 NNE 20 30 11 16 1001.5 1000.3 22.4
14/04:30am 22.1 21.8 19.6 86 1.6 NNE 20 28 11 15 1001.6 1000.4 22.4
14/04:00am 22.3 21.3 19.7 85 1.7 NNE 24 32 13 17 1001.6 1000.4 22.4
14/03:30am 22.2 21.2 19.6 85 1.7 NNE 24 33 13 18 1001.5 1000.3 22.4
14/03:00am 21.9 20.7 19.3 85 1.7 NNE 24 30 13 16 1001.7 1000.5 22.4
14/02:30am 21.9 21.1 19.3 85 1.7 NNE 22 30 12 16 1001.6 1000.4 22.4
14/02:00am 21.8 21.1 19.4 86 1.5 NNE 22 28 12 15 1001.5 1000.3 22.4
14/01:30am 21.7 20.2 19.4 87 1.5 NE 26 33 14 18 1001.6 1000.4 22.4
14/01:00am 21.6 19.7 19.3 87 1.5 NE 28 35 15 19 1001.8 1000.6 22.4
14/12:30am 21.8 20.0 19.5 87 1.5 NE 28 37 15 20 1002.3 1001.0 22.4
14/12:00am 21.6 19.8 19.5 88 1.4 NE 28 35 15 19 1002.8 1001.5 22.4
 
Date/Time
EDT
Temp
°C
App
Temp
°C
Dew
Point
°C
Rel
Hum
%
Delta-T
°C
Wind Press
QNH
hPa
Press
MSL
hPa
Rain since
9am
mm
Dir  Spd
km/h
Gust
km/h
Spd
kts
Gust
kts
13/11:30pm 21.7 19.9 19.6 88 1.3 NE 28 33 15 18 1003.1 1001.8 22.4
13/11:00pm 21.7 20.7 19.6 88 1.4 NE 24 30 13 16 1003.4 1002.1 22.4
13/10:30pm 22.0 20.9 19.5 86 1.6 NE 24 30 13 16 1003.5 1002.2 22.4
13/10:00pm 22.2 20.8 19.7 86 1.6 NE 26 33 14 18 1003.5 1002.2 22.4
13/09:30pm 22.1 21.9 19.8 87 1.5 NE 20 28 11 15 1002.6 1001.3 22.2
13/09:00pm 22.3 22.2 20.0 87 1.5 NE 20 26 11 14 1002.5 1001.2 22.2
13/08:30pm 22.1 22.6 20.0 88 1.4 NE 17 22 9 12 1002.5 1001.2 22.2
13/08:00pm 22.1 22.0 19.5 85 1.7 ENE 19 24 10 13 1002.4 1001.1 22.2
13/07:30pm 22.3 21.2 19.5 84 1.8 ENE 24 30 13 16 1001.7 1000.5 22.2
13/07:00pm 23.0 21.9 20.3 85 1.8 ENE 26 32 14 17 1001.4 1000.2 22.2
13/06:30pm 22.8 23.1 20.5 87 1.5 E 19 24 10 13 1001.9 1000.7 22.2
13/06:00pm 22.3 23.7 20.4 89 1.2 ESE 13 17 7 9 1002.1 1000.9 22.2
13/05:30pm 21.8 23.9 20.1 90 1.1 E 9 15 5 8 1002.6 1001.3 22.2
13/05:00pm 21.4 22.7 20.2 93 0.8 ESE 13 17 7 9 1002.4 1001.1 22.2
13/04:50pm 21.0 22.2 19.8 93 0.8 SSW 13 17 7 9 1002.5 1001.2 22.2
13/04:46pm 21.1 22.3 19.9 93 0.8 SW 13 17 7 9 1002.8 1001.5 22.2
13/04:30pm 20.8 18.2 19.5 92 0.8 SW 32 41 17 22 1003.4 1002.1 21.6
13/04:22pm 20.7 16.1 19.7 94 0.6 W 43 67 23 36 1003.9 1002.6 19.8
13/04:16pm 20.5 14.0 19.3 93 0.8 NW 52 67 28 36 1004.2 1002.9 15.4
13/04:15pm 20.4 13.4 19.1 92 0.8 NW 54 72 29 39 1004.3 1003.0 14.4
13/04:11pm 19.5 11.9 16.7 84 1.7 NW 52 72 28 39 1003.7 1002.4 9.8
13/04:04pm 21.5 17.9 15.3 68 3.7 NNW 28 69 15 37 1001.5 1000.3 4.8
13/04:00pm 25.5 24.8 18.2 64 4.7 NNW 19 30 10 16 1000.8 999.6 2.6
13/03:58pm 26.6 26.3 18.2 60 5.4 NNW 17 30 9 16 1000.8 999.6 1.4
13/03:30pm 30.3 29.1 17.0 44 8.5 N 19 30 10 16 1000.7 999.5 0.0
13/03:00pm 31.7 29.0 15.6 37 10.1 N 24 37 13 20 1000.4 999.2 0.0
13/02:30pm 32.7 30.4 15.7 36 10.7 N 22 35 12 19 1001.5 1000.3 0.0
13/02:00pm 33.1 29.6 15.6 35 11.0 N 28 37 15 20 1003.2 1001.9 0.0
13/01:30pm 32.6 29.2 16.8 38 10.1 N 30 41 16 22 1003.7 1002.4 0.0
13/01:00pm 32.3 29.4 17.0 40 9.8 N 28 39 15 21 1004.0 1002.7 0.0
13/12:30pm 31.7 29.0 17.6 43 9.1 N 28 39 15 21 1004.3 1003.0 0.0
13/12:00pm 30.8 28.3 17.1 43 8.8 N 26 41 14 22 1004.8 1003.6 0.0
13/11:30am 29.3 26.3 16.8 47 7.9 N 28 35 15 19 1005.3 1004.1 0.0
13/11:00am 29.4 25.9 16.6 46 8.1 N 30 44 16 24 1005.5 1004.3 0.0
13/10:30am 29.5 26.0 18.0 50 7.4 NNE 33 48 18 26 1005.8 1004.6 0.0
13/10:00am 27.0 22.7 16.9 54 6.4 NNE 35 46 19 25 1006.1 1004.9 0.0
13/09:30am 26.5 22.5 16.7 55 6.1 NNE 33 44 18 24 1006.4 1005.2 0.0
13/09:00am 25.2 20.8 16.6 59 5.4 NNE 35 44 19 24 1006.8 1005.6 0.0
13/08:30am 24.9 20.9 16.6 60 5.2 NNE 33 43 18 23 1007.4 1006.1 0.0
13/08:00am 23.9 20.0 16.4 63 4.6 NE 32 37 17 20 1007.4 1006.1 0.0
13/07:30am 23.6 20.3 16.1 62 4.6 NE 28 33 15 18 1007.6 1006.3 0.0
13/07:00am 23.4 20.5 16.0 63 4.5 NE 26 32 14 17 1007.8 1006.5 0.0
13/06:30am 23.4 21.5 15.7 62 4.7 NE 20 26 11 14 1007.9 1006.6 0.0
13/06:00am 23.2 21.7 15.3 61 4.8 NE 17 24 9 13 1008.0 1006.7 0.0
13/05:30am 23.6 21.1 15.1 59 5.1 NE 22 30 12 16 1007.9 1006.6 0.0

Other Formats:

Comma delimited format used in spreadsheet applications
http://www.bom.gov.au/fwo/IDN60801/IDN60801.95527.axf

JavaScript Object Notation format (JSON) in row-major order
http://www.bom.gov.au/fwo/IDN60801/IDN60801.95527.json